Time;durP1;ratioP1;P1;durP2;ratioP2;P2;SDS_P1;SDS_P2;PMS_P1;PMS_P2;Temp;Humidity;BMP_temperature;BMP_pressure;BME280_temperature;BME280_humidity;BME280_pressure;Samples;Min_cycle;Max_cycle;Signal;HPM_P1;HPM_P2
2023/07/24 00:01:49;;;;;;;0.25;0.25;;;;;;;;;;5075044;28;20028;-73
2023/07/24 00:04:14;;;;;;;0.20;0.20;;;;;;;;;;5075028;28;20089;-73
2023/07/24 00:06:40;;;;;;;0.35;0.35;;;;;;;;;;5073895;28;20040;-73
2023/07/24 00:09:05;;;;;;;0.20;0.20;;;;;;;;;;5074833;28;20119;-73
2023/07/24 00:11:30;;;;;;;0.30;0.30;;;;;;;;;;5074905;28;20082;-73
2023/07/24 00:13:56;;;;;;;0.20;0.20;;;;;;;;;;5074651;28;20098;-73
2023/07/24 00:16:21;;;;;;;0.20;0.20;;;;;;;;;;5074731;28;20474;-73
2023/07/24 00:18:47;;;;;;;0.20;0.20;;;;;;;;;;5056853;28;20041;-73
2023/07/24 00:21:13;;;;;;;0.20;0.20;;;;;;;;;;5074835;28;20111;-73
2023/07/24 00:23:38;;;;;;;0.25;0.25;;;;;;;;;;5074940;28;20032;-72
2023/07/24 00:26:04;;;;;;;0.30;0.30;;;;;;;;;;5074758;28;20383;-73
2023/07/24 00:28:29;;;;;;;0.20;0.20;;;;;;;;;;5074379;28;20036;-73
2023/07/24 00:30:56;;;;;;;0.20;0.20;;;;;;;;;;5055783;28;20036;-72
2023/07/24 00:33:21;;;;;;;0.20;0.20;;;;;;;;;;5074421;28;20037;-73
2023/07/24 00:35:47;;;;;;;0.20;0.20;;;;;;;;;;5056463;28;20043;-72
2023/07/24 00:38:12;;;;;;;0.30;0.30;;;;;;;;;;5074482;28;20040;-72
2023/07/24 00:40:38;;;;;;;0.20;0.20;;;;;;;;;;5074372;28;20103;-73
2023/07/24 00:43:04;;;;;;;0.20;0.20;;;;;;;;;;5074324;28;20143;-73
2023/07/24 00:45:29;;;;;;;0.20;0.20;;;;;;;;;;5074411;28;20056;-73
2023/07/24 00:47:55;;;;;;;0.20;0.20;;;;;;;;;;5074263;28;20172;-73
2023/07/24 00:50:21;;;;;;;0.20;0.20;;;;;;;;;;5074049;28;20495;-72
2023/07/24 00:52:46;;;;;;;0.30;0.30;;;;;;;;;;5074196;28;20537;-73
2023/07/24 00:55:13;;;;;;;0.20;0.20;;;;;;;;;;5074160;28;20472;-73
2023/07/24 00:57:40;;;;;;;0.20;0.20;;;;;;;;;;5056258;28;20032;-72
2023/07/24 01:00:07;;;;;;;0.95;0.80;;;;;;;;;;5056167;28;20279;-71
2023/07/24 01:02:32;;;;;;;0.22;0.22;;;;;;;;;;5056116;28;20055;-72
2023/07/24 01:04:58;;;;;;;0.50;0.50;;;;;;;;;;5073823;28;20036;-73
2023/07/24 01:07:24;;;;;;;1.23;1.20;;;;;;;;;;5073985;28;20032;-72
2023/07/24 01:09:50;;;;;;;0.40;0.40;;;;;;;;;;5073724;28;20553;-73
2023/07/24 01:12:19;;;;;;;7.32;6.40;;;;;;;;;;5073809;28;20059;-72
2023/07/24 01:14:51;;;;;;;0.20;0.20;;;;;;;;;;5073827;28;20063;-73
2023/07/24 01:17:20;;;;;;;2.75;2.15;;;;;;;;;;5055697;28;20033;-73
2023/07/24 01:19:52;;;;;;;2.95;2.40;;;;;;;;;;5073864;28;20039;-73
2023/07/24 01:22:30;;;;;;;0.20;0.20;;;;;;;;;;5073773;28;20033;-73
2023/07/24 01:24:55;;;;;;;0.35;0.32;;;;;;;;;;5073781;28;20376;-72
2023/07/24 01:27:23;;;;;;;0.22;0.22;;;;;;;;;;5073405;28;20033;-72
2023/07/24 01:29:48;;;;;;;0.20;0.20;;;;;;;;;;5073565;28;20103;-73
2023/07/24 01:32:14;;;;;;;1.25;0.85;;;;;;;;;;5073398;28;20079;-73
2023/07/24 01:34:40;;;;;;;0.43;0.43;;;;;;;;;;5072326;28;20029;-72
2023/07/24 01:37:07;;;;;;;0.25;0.25;;;;;;;;;;5073328;28;20129;-73
2023/07/24 01:39:33;;;;;;;0.38;0.38;;;;;;;;;;5073544;28;20124;-72
2023/07/24 01:41:58;;;;;;;0.22;0.22;;;;;;;;;;5073254;28;20021;-73
2023/07/24 01:44:24;;;;;;;0.20;0.20;;;;;;;;;;5073277;28;20044;-72
2023/07/24 01:46:49;;;;;;;0.30;0.30;;;;;;;;;;5073240;28;20047;-73
2023/07/24 01:49:14;;;;;;;1.15;1.00;;;;;;;;;;5055310;28;20109;-72
2023/07/24 01:51:43;;;;;;;0.30;0.30;;;;;;;;;;5073339;28;20036;-73
2023/07/24 01:54:08;;;;;;;0.30;0.30;;;;;;;;;;5073198;28;20431;-73
2023/07/24 01:56:35;;;;;;;0.30;0.30;;;;;;;;;;5073150;28;20039;-72
2023/07/24 01:59:01;;;;;;;0.30;0.30;;;;;;;;;;5073234;28;20048;-72
2023/07/24 02:01:26;;;;;;;0.30;0.30;;;;;;;;;;5072971;28;20032;-72
2023/07/24 02:03:52;;;;;;;0.57;0.57;;;;;;;;;;5055359;28;20092;-72
2023/07/24 02:06:17;;;;;;;1.58;0.95;;;;;;;;;;5055109;28;20507;-71
2023/07/24 02:08:48;;;;;;;0.43;0.43;;;;;;;;;;5072747;28;20118;-72
2023/07/24 02:11:17;;;;;;;0.25;0.25;;;;;;;;;;5054988;28;20035;-73
2023/07/24 02:13:43;;;;;;;0.30;0.30;;;;;;;;;;5054906;28;20047;-73
2023/07/24 02:16:09;;;;;;;0.60;0.60;;;;;;;;;;5054802;28;20078;-73
2023/07/24 02:18:34;;;;;;;0.30;0.30;;;;;;;;;;5072988;28;20092;-73
2023/07/24 02:21:00;;;;;;;0.25;0.25;;;;;;;;;;5054915;28;20033;-73
2023/07/24 02:23:25;;;;;;;2.78;1.42;;;;;;;;;;5072721;28;20060;-73
2023/07/24 02:25:52;;;;;;;0.28;0.28;;;;;;;;;;5055197;28;20028;-72
2023/07/24 02:28:17;;;;;;;0.20;0.20;;;;;;;;;;5072724;28;20420;-73
2023/07/24 02:30:44;;;;;;;0.20;0.20;;;;;;;;;;5072494;28;20380;-73
2023/07/24 02:33:09;;;;;;;3.13;2.92;;;;;;;;;;5072643;28;20044;-72
2023/07/24 02:35:38;;;;;;;0.30;0.30;;;;;;;;;;5054642;28;20032;-73
2023/07/24 02:38:04;;;;;;;2.05;1.05;;;;;;;;;;5054428;28;20438;-73
2023/07/24 02:40:30;;;;;;;0.20;0.20;;;;;;;;;;5054520;28;20029;-73
2023/07/24 02:42:56;;;;;;;1.73;1.13;;;;;;;;;;5071325;28;20518;-73
2023/07/24 02:45:21;;;;;;;0.30;0.30;;;;;;;;;;5072283;28;20036;-73
2023/07/24 02:47:47;;;;;;;0.20;0.20;;;;;;;;;;5072381;28;20147;-73
2023/07/24 02:50:13;;;;;;;0.20;0.20;;;;;;;;;;5072534;28;20119;-72
2023/07/24 02:52:38;;;;;;;0.20;0.20;;;;;;;;;;5055461;28;20028;-72
2023/07/24 02:55:04;;;;;;;0.28;0.28;;;;;;;;;;5076053;28;20109;-72
2023/07/24 02:57:29;;;;;;;0.30;0.30;;;;;;;;;;5075956;28;20103;-73
2023/07/24 02:59:55;;;;;;;0.38;0.38;;;;;;;;;;5075704;28;20043;-73
2023/07/24 03:02:20;;;;;;;8.85;0.90;;;;;;;;;;5053601;28;20503;-73
2023/07/24 03:04:46;;;;;;;1.27;1.17;;;;;;;;;;5050644;28;20037;-73
2023/07/24 03:07:11;;;;;;;5.93;2.47;;;;;;;;;;5050011;28;20043;-73
2023/07/24 03:09:36;;;;;;;1.20;0.70;;;;;;;;;;5050324;28;20120;-73
2023/07/24 03:12:02;;;;;;;3.95;1.50;;;;;;;;;;5051784;28;20502;-73
2023/07/24 03:14:27;;;;;;;0.68;0.68;;;;;;;;;;5051723;28;20410;-73
2023/07/24 03:16:53;;;;;;;0.40;0.40;;;;;;;;;;5052023;28;20040;-73
2023/07/24 03:19:20;;;;;;;0.20;0.20;;;;;;;;;;5051564;28;20489;-73
2023/07/24 03:21:45;;;;;;;0.30;0.30;;;;;;;;;;5051660;28;20091;-73
2023/07/24 03:24:11;;;;;;;0.30;0.30;;;;;;;;;;5051778;28;20464;-73
2023/07/24 03:26:36;;;;;;;0.30;0.30;;;;;;;;;;5051691;28;20124;-73
2023/07/24 03:29:02;;;;;;;0.30;0.30;;;;;;;;;;5049521;28;20044;-73
2023/07/24 03:31:27;;;;;;;0.30;0.30;;;;;;;;;;5050857;28;20392;-73
2023/07/24 03:33:52;;;;;;;0.20;0.20;;;;;;;;;;5050939;28;20115;-72
2023/07/24 03:36:19;;;;;;;3.67;1.27;;;;;;;;;;5049931;28;20041;-72
2023/07/24 03:38:44;;;;;;;0.68;0.60;;;;;;;;;;5049639;28;20132;-72
2023/07/24 03:41:10;;;;;;;0.38;0.38;;;;;;;;;;5049369;28;20025;-71
2023/07/24 03:43:36;;;;;;;3.42;2.55;;;;;;;;;;5049295;28;20094;-71
2023/07/24 03:46:02;;;;;;;0.20;0.20;;;;;;;;;;5050834;28;20033;-72
2023/07/24 03:48:28;;;;;;;0.20;0.20;;;;;;;;;;5049464;28;20117;-72
2023/07/24 03:51:00;;;;;;;0.20;0.20;;;;;;;;;;5049959;28;20531;-72
2023/07/24 03:53:25;;;;;;;0.20;0.20;;;;;;;;;;5051069;28;20076;-73
2023/07/24 03:55:51;;;;;;;0.30;0.30;;;;;;;;;;5050831;28;20068;-74
2023/07/24 03:58:16;;;;;;;0.20;0.20;;;;;;;;;;5050458;28;20036;-72
2023/07/24 04:00:42;;;;;;;0.20;0.20;;;;;;;;;;5050558;28;20055;-72
2023/07/24 04:03:08;;;;;;;0.30;0.30;;;;;;;;;;5049119;28;20392;-72
2023/07/24 04:05:34;;;;;;;0.20;0.20;;;;;;;;;;5050874;28;20142;-72
2023/07/24 04:07:59;;;;;;;0.30;0.30;;;;;;;;;;5050587;28;20141;-72
2023/07/24 04:10:25;;;;;;;0.20;0.20;;;;;;;;;;5050787;28;20475;-72
2023/07/24 04:12:51;;;;;;;0.20;0.20;;;;;;;;;;5050571;28;22013;-72
2023/07/24 04:15:16;;;;;;;0.30;0.30;;;;;;;;;;5050162;28;20106;-72
2023/07/24 04:17:42;;;;;;;0.30;0.30;;;;;;;;;;5050594;28;20462;-71
2023/07/24 04:20:08;;;;;;;0.60;0.60;;;;;;;;;;5050429;28;20032;-71
2023/07/24 04:22:33;;;;;;;0.43;0.43;;;;;;;;;;5050603;28;20037;-72
2023/07/24 04:24:58;;;;;;;0.65;0.47;;;;;;;;;;5050145;28;20472;-73
2023/07/24 04:27:24;;;;;;;0.20;0.20;;;;;;;;;;5050532;28;20036;-72
2023/07/24 04:29:49;;;;;;;0.28;0.28;;;;;;;;;;5050572;28;20112;-72
2023/07/24 04:32:15;;;;;;;0.20;0.20;;;;;;;;;;5050367;28;20211;-72
2023/07/24 04:34:40;;;;;;;0.20;0.20;;;;;;;;;;5048936;28;20396;-71
2023/07/24 04:37:06;;;;;;;0.30;0.30;;;;;;;;;;5050287;28;20037;-73
2023/07/24 04:39:31;;;;;;;0.30;0.30;;;;;;;;;;5050939;28;20075;-72
2023/07/24 04:41:56;;;;;;;0.30;0.30;;;;;;;;;;5050461;28;20021;-72
2023/07/24 04:44:22;;;;;;;0.30;0.30;;;;;;;;;;5049345;28;20480;-72
2023/07/24 04:46:47;;;;;;;0.30;0.30;;;;;;;;;;5049060;28;20025;-73
2023/07/24 04:49:13;;;;;;;0.30;0.30;;;;;;;;;;5050076;28;20036;-72
2023/07/24 04:51:38;;;;;;;8.23;1.58;;;;;;;;;;5050735;28;20127;-72
2023/07/24 04:54:04;;;;;;;0.30;0.30;;;;;;;;;;5050260;28;20112;-72
2023/07/24 04:56:29;;;;;;;0.20;0.20;;;;;;;;;;5050201;28;20442;-72
2023/07/24 04:58:55;;;;;;;0.30;0.30;;;;;;;;;;5050013;28;20539;-72
2023/07/24 05:01:20;;;;;;;0.22;0.22;;;;;;;;;;5050095;28;20048;-72
2023/07/24 05:03:45;;;;;;;0.30;0.30;;;;;;;;;;5049177;28;20400;-73
2023/07/24 05:06:11;;;;;;;0.30;0.30;;;;;;;;;;5050153;28;20013;-72
2023/07/24 05:08:36;;;;;;;0.30;0.30;;;;;;;;;;5050503;28;20113;-72
2023/07/24 05:11:02;;;;;;;0.35;0.35;;;;;;;;;;5049758;28;20253;-72
2023/07/24 05:13:27;;;;;;;0.30;0.30;;;;;;;;;;5050120;28;20041;-72
2023/07/24 05:15:52;;;;;;;0.30;0.30;;;;;;;;;;5049392;28;20401;-73
2023/07/24 05:18:18;;;;;;;0.32;0.32;;;;;;;;;;5049764;28;20389;-72
2023/07/24 05:20:47;;;;;;;0.30;0.30;;;;;;;;;;5050284;28;20033;-72
2023/07/24 05:23:13;;;;;;;0.30;0.30;;;;;;;;;;5049288;28;20036;-73
2023/07/24 05:25:38;;;;;;;0.30;0.30;;;;;;;;;;5065091;28;20224;-72
2023/07/24 05:28:04;;;;;;;0.38;0.38;;;;;;;;;;5048452;28;20028;-72
2023/07/24 05:30:29;;;;;;;3.90;2.78;;;;;;;;;;5048080;28;20028;-72
2023/07/24 05:32:55;;;;;;;6.50;1.85;;;;;;;;;;5048179;28;20423;-73
2023/07/24 05:35:20;;;;;;;4.57;1.60;;;;;;;;;;5049285;28;20306;-73
2023/07/24 05:37:46;;;;;;;0.30;0.30;;;;;;;;;;5049558;28;20040;-72
2023/07/24 05:40:11;;;;;;;0.40;0.40;;;;;;;;;;5048177;28;20047;-72
2023/07/24 05:42:41;;;;;;;0.57;0.50;;;;;;;;;;5049508;28;20025;-72
2023/07/24 05:45:07;;;;;;;0.63;0.63;;;;;;;;;;5047926;28;20450;-73
2023/07/24 05:47:33;;;;;;;0.30;0.30;;;;;;;;;;5049401;28;20048;-73
2023/07/24 05:49:58;;;;;;;0.30;0.30;;;;;;;;;;5047727;28;20135;-72
2023/07/24 05:52:23;;;;;;;0.30;0.30;;;;;;;;;;5048428;28;20076;-72
2023/07/24 05:54:49;;;;;;;0.22;0.22;;;;;;;;;;5049082;28;20440;-71
2023/07/24 05:57:14;;;;;;;0.35;0.35;;;;;;;;;;5049020;28;20464;-73
2023/07/24 05:59:40;;;;;;;0.30;0.30;;;;;;;;;;5049053;28;20036;-72
2023/07/24 06:02:05;;;;;;;2.45;2.25;;;;;;;;;;5047999;28;20075;-73
2023/07/24 06:04:31;;;;;;;0.30;0.30;;;;;;;;;;5049093;28;20029;-73
2023/07/24 06:06:56;;;;;;;2.38;1.42;;;;;;;;;;5048914;28;20041;-73
2023/07/24 06:09:21;;;;;;;0.28;0.28;;;;;;;;;;5064343;28;20488;-72
2023/07/24 06:11:47;;;;;;;2.00;0.95;;;;;;;;;;5064141;28;20037;-72
2023/07/24 06:14:12;;;;;;;0.63;0.63;;;;;;;;;;5048485;28;20528;-73
2023/07/24 06:16:38;;;;;;;1.85;1.15;;;;;;;;;;5049423;28;20033;-72
2023/07/24 06:19:03;;;;;;;3.10;2.20;;;;;;;;;;5064292;28;20016;-73
2023/07/24 06:21:29;;;;;;;0.30;0.30;;;;;;;;;;5047641;28;20048;-73
2023/07/24 06:23:54;;;;;;;0.50;0.50;;;;;;;;;;5048927;28;20114;-73
2023/07/24 06:26:20;;;;;;;0.30;0.30;;;;;;;;;;5047219;28;20138;-72
2023/07/24 06:28:45;;;;;;;0.30;0.30;;;;;;;;;;5046466;28;20036;-72
2023/07/24 06:31:11;;;;;;;0.68;0.68;;;;;;;;;;5048312;28;20060;-73
2023/07/24 06:33:36;;;;;;;0.65;0.60;;;;;;;;;;5048587;28;20043;-72
2023/07/24 06:36:01;;;;;;;0.30;0.30;;;;;;;;;;5048773;28;20203;-73
2023/07/24 06:38:27;;;;;;;8.35;1.85;;;;;;;;;;5047803;28;20029;-72
2023/07/24 06:40:52;;;;;;;6.38;2.08;;;;;;;;;;5048455;28;20069;-72
2023/07/24 06:43:18;;;;;;;0.30;0.30;;;;;;;;;;5048093;28;20041;-72
2023/07/24 06:45:43;;;;;;;0.40;0.40;;;;;;;;;;5046487;28;20436;-72
2023/07/24 06:48:09;;;;;;;0.30;0.30;;;;;;;;;;5064103;28;20192;-72
2023/07/24 06:50:34;;;;;;;0.43;0.43;;;;;;;;;;5069017;28;20126;-73
2023/07/24 06:52:59;;;;;;;1.10;1.05;;;;;;;;;;5065518;28;20060;-75
2023/07/24 06:55:25;;;;;;;0.80;0.80;;;;;;;;;;5071246;28;20036;-73
2023/07/24 06:57:50;;;;;;;0.38;0.38;;;;;;;;;;5067058;28;20028;-73
2023/07/24 07:00:16;;;;;;;0.60;0.60;;;;;;;;;;5067916;28;20379;-73
2023/07/24 07:02:41;;;;;;;0.40;0.40;;;;;;;;;;5068914;28;20384;-72
2023/07/24 07:05:07;;;;;;;0.77;0.63;;;;;;;;;;5084843;28;20043;-74
2023/07/24 07:07:32;;;;;;;0.50;0.50;;;;;;;;;;5077782;28;20123;-72
2023/07/24 07:09:58;;;;;;;1.15;0.85;;;;;;;;;;5074963;28;20142;-73
2023/07/24 07:12:23;;;;;;;0.40;0.40;;;;;;;;;;5078150;28;20566;-74
2023/07/24 07:14:49;;;;;;;9.35;8.45;;;;;;;;;;5061447;28;20033;-73
2023/07/24 07:17:14;;;;;;;4.88;2.28;;;;;;;;;;5071533;28;20028;-74
2023/07/24 07:19:40;;;;;;;11.60;1.48;;;;;;;;;;5088052;28;20040;-73
2023/07/24 07:22:05;;;;;;;3.70;2.58;;;;;;;;;;5087033;28;20107;-73
2023/07/24 07:24:31;;;;;;;3.63;1.80;;;;;;;;;;5067456;28;20043;-73
2023/07/24 07:26:56;;;;;;;3.67;2.90;;;;;;;;;;5066352;28;20107;-74
2023/07/24 07:29:22;;;;;;;13.55;2.80;;;;;;;;;;5067521;28;20045;-73
2023/07/24 07:31:47;;;;;;;0.40;0.40;;;;;;;;;;5066081;28;20564;-73
2023/07/24 07:34:13;;;;;;;4.32;1.02;;;;;;;;;;5067704;28;20698;-73
2023/07/24 07:36:38;;;;;;;5.88;2.85;;;;;;;;;;5082107;28;20036;-73
2023/07/24 07:39:04;;;;;;;0.40;0.40;;;;;;;;;;5034586;28;20033;-73
2023/07/24 07:41:29;;;;;;;20.00;3.15;;;;;;;;;;5062115;28;20025;-72
2023/07/24 07:43:54;;;;;;;5.00;1.38;;;;;;;;;;5050879;28;20380;-73
2023/07/24 07:46:20;;;;;;;12.50;3.00;;;;;;;;;;5050721;28;20452;-72
2023/07/24 07:48:46;;;;;;;9.73;3.50;;;;;;;;;;5032948;28;20021;-77
2023/07/24 07:51:11;;;;;;;12.85;5.10;;;;;;;;;;5050656;28;20049;-75
2023/07/24 07:53:38;;;;;;;11.20;4.85;;;;;;;;;;5051049;28;20033;-76
2023/07/24 07:56:04;;;;;;;2.75;1.65;;;;;;;;;;5054205;28;20116;-75
2023/07/24 07:58:29;;;;;;;4.22;1.45;;;;;;;;;;5070939;28;20463;-77
2023/07/24 08:00:55;;;;;;;7.70;4.18;;;;;;;;;;5085751;28;20032;-76
2023/07/24 08:03:20;;;;;;;4.20;2.03;;;;;;;;;;5090631;28;20146;-76
2023/07/24 08:05:46;;;;;;;5.35;2.67;;;;;;;;;;5090610;28;20028;-72
2023/07/24 08:08:11;;;;;;;12.05;2.65;;;;;;;;;;5089265;28;20077;-75
2023/07/24 08:10:37;;;;;;;0.98;0.88;;;;;;;;;;5075798;28;20025;-74
2023/07/24 08:13:03;;;;;;;13.65;3.55;;;;;;;;;;5070000;28;20037;-78
2023/07/24 08:15:28;;;;;;;6.88;2.60;;;;;;;;;;5070536;28;20039;-75
2023/07/24 08:17:54;;;;;;;3.83;1.88;;;;;;;;;;5070310;28;20029;-78
2023/07/24 08:20:19;;;;;;;12.27;2.35;;;;;;;;;;5069348;28;20500;-76
2023/07/24 08:22:44;;;;;;;2.22;1.40;;;;;;;;;;5070104;28;20033;-75
2023/07/24 08:25:10;;;;;;;4.38;1.20;;;;;;;;;;5069965;28;20471;-75
2023/07/24 08:27:35;;;;;;;1.90;1.52;;;;;;;;;;5070212;28;20044;-75
2023/07/24 08:30:00;;;;;;;10.38;2.88;;;;;;;;;;5070374;28;20472;-77
2023/07/24 08:32:26;;;;;;;5.75;1.33;;;;;;;;;;5069907;28;20041;-77
2023/07/24 08:34:51;;;;;;;11.32;4.90;;;;;;;;;;5052388;28;20160;-80
2023/07/24 08:37:17;;;;;;;12.80;2.53;;;;;;;;;;5070030;28;20036;-75
2023/07/24 08:39:42;;;;;;;12.25;4.10;;;;;;;;;;5070120;28;20121;-75
2023/07/24 08:42:08;;;;;;;5.75;2.40;;;;;;;;;;5069932;28;20028;-76
2023/07/24 08:44:34;;;;;;;7.13;1.63;;;;;;;;;;5070482;28;20036;-77
2023/07/24 08:47:00;;;;;;;0.93;0.75;;;;;;;;;;5070001;28;20048;-77
2023/07/24 09:02:59;;;;;;;4.57;1.90;;;;;;;;;;5065846;28;20067;-81
2023/07/24 09:05:24;;;;;;;2.85;1.25;;;;;;;;;;5069368;28;20033;-79
2023/07/24 09:07:50;;;;;;;12.88;5.30;;;;;;;;;;5058254;28;20030;-81
2023/07/24 09:10:15;;;;;;;17.17;4.07;;;;;;;;;;5086756;28;20036;-77
2023/07/24 09:12:41;;;;;;;15.98;3.33;;;;;;;;;;5068780;28;20028;-78
2023/07/24 09:15:07;;;;;;;33.97;4.95;;;;;;;;;;5069089;28;20124;-78
2023/07/24 09:17:33;;;;;;;10.65;3.28;;;;;;;;;;5066331;28;20033;-77
2023/07/24 09:19:58;;;;;;;5.40;2.83;;;;;;;;;;5068688;28;20025;-77
2023/07/24 09:22:26;;;;;;;11.20;2.92;;;;;;;;;;5077186;28;20086;-77
2023/07/24 09:24:53;;;;;;;20.13;3.90;;;;;;;;;;5067375;28;20119;-78
2023/07/24 09:27:19;;;;;;;2.05;0.95;;;;;;;;;;5036436;28;20036;-77
2023/07/24 09:29:45;;;;;;;6.35;2.40;;;;;;;;;;5068879;28;20820;-75
2023/07/24 09:32:20;;;;;;;0.60;0.60;;;;;;;;;;5068845;28;20090;-77
2023/07/24 09:34:47;;;;;;;7.47;2.90;;;;;;;;;;5047939;28;20047;-77
2023/07/24 09:37:22;;;;;;;5.28;2.03;;;;;;;;;;5062920;28;20412;-77
2023/07/24 09:39:47;;;;;;;26.02;4.72;;;;;;;;;;5068764;28;20021;-80
2023/07/24 09:42:13;;;;;;;15.35;3.55;;;;;;;;;;5068791;28;20550;-77
2023/07/24 09:44:38;;;;;;;10.85;2.88;;;;;;;;;;5069126;28;20029;-77
2023/07/24 09:47:04;;;;;;;17.63;2.92;;;;;;;;;;5068280;28;20064;-81
2023/07/24 09:49:30;;;;;;;17.90;7.03;;;;;;;;;;5068976;28;20040;-76
2023/07/24 09:51:58;;;;;;;13.43;3.00;;;;;;;;;;5068352;28;20029;-76
2023/07/24 09:54:26;;;;;;;8.00;4.47;;;;;;;;;;5050449;28;20094;-76
2023/07/24 09:56:52;;;;;;;20.45;4.63;;;;;;;;;;5066687;28;20035;-79
2023/07/24 09:59:18;;;;;;;10.65;3.85;;;;;;;;;;5066966;28;20103;-76
2023/07/24 10:01:44;;;;;;;20.42;3.83;;;;;;;;;;5067808;28;20082;-78
2023/07/24 10:04:09;;;;;;;18.05;3.90;;;;;;;;;;5067742;28;20025;-77
2023/07/24 10:06:35;;;;;;;6.30;2.03;;;;;;;;;;5067850;28;20124;-77
2023/07/24 10:09:01;;;;;;;27.90;6.05;;;;;;;;;;5067996;28;20082;-77
2023/07/24 10:11:26;;;;;;;20.58;4.90;;;;;;;;;;5065812;28;20071;-76
2023/07/24 10:13:53;;;;;;;17.35;3.65;;;;;;;;;;5064186;28;20475;-77
2023/07/24 10:16:18;;;;;;;16.02;3.03;;;;;;;;;;5068543;28;20027;-77
2023/07/24 10:18:45;;;;;;;11.18;3.28;;;;;;;;;;5068090;28;20119;-76
2023/07/24 10:24:39;;;;;;;14.70;3.85;;;;;;;;;;5067541;28;20526;-77
2023/07/24 10:27:04;;;;;;;16.50;4.47;;;;;;;;;;5067103;28;20025;-78
2023/07/24 10:29:33;;;;;;;19.45;4.47;;;;;;;;;;5070444;28;20081;-77
2023/07/24 10:31:59;;;;;;;27.73;6.20;;;;;;;;;;5073371;28;20039;-76
2023/07/24 10:34:24;;;;;;;10.35;1.95;;;;;;;;;;5076775;28;20044;-82
2023/07/24 10:36:50;;;;;;;18.70;2.88;;;;;;;;;;5067069;28;20505;-76
2023/07/24 10:39:18;;;;;;;18.27;6.18;;;;;;;;;;5084819;28;20028;-77
2023/07/24 10:41:45;;;;;;;16.85;4.85;;;;;;;;;;5074568;28;20131;-78
2023/07/24 10:44:10;;;;;;;14.63;4.22;;;;;;;;;;5066417;28;20098;-76
2023/07/24 10:46:39;;;;;;;24.48;5.22;;;;;;;;;;5061773;28;20041;-77
2023/07/24 10:49:05;;;;;;;5.32;2.97;;;;;;;;;;5070726;28;20028;-77
2023/07/24 10:51:37;;;;;;;15.23;5.00;;;;;;;;;;5088110;28;20104;-75
2023/07/24 10:54:03;;;;;;;14.07;3.33;;;;;;;;;;5088029;28;20131;-76
2023/07/24 10:56:29;;;;;;;5.43;2.28;;;;;;;;;;5064845;28;20040;-75
2023/07/24 10:58:54;;;;;;;10.82;2.10;;;;;;;;;;5063152;28;20031;-75
2023/07/24 11:01:20;;;;;;;7.47;2.83;;;;;;;;;;5043639;28;20445;-76
2023/07/24 11:03:45;;;;;;;6.72;2.17;;;;;;;;;;5050280;28;20507;-75
2023/07/24 11:06:15;;;;;;;8.02;2.63;;;;;;;;;;5063387;28;20477;-74
2023/07/24 11:08:40;;;;;;;11.75;3.38;;;;;;;;;;5082574;28;20479;-74
2023/07/24 11:11:07;;;;;;;5.72;2.90;;;;;;;;;;5075312;28;20068;-75
2023/07/24 11:13:34;;;;;;;11.20;3.15;;;;;;;;;;5068139;28;20068;-75
2023/07/24 11:16:04;;;;;;;6.55;1.90;;;;;;;;;;5075469;28;20036;-76
2023/07/24 11:18:29;;;;;;;9.60;4.70;;;;;;;;;;5091822;28;20379;-75
2023/07/24 11:20:55;;;;;;;9.85;3.40;;;;;;;;;;5091797;28;20058;-75
2023/07/24 11:23:21;;;;;;;5.60;2.13;;;;;;;;;;5091049;28;20027;-76
2023/07/24 11:25:49;;;;;;;17.02;3.67;;;;;;;;;;5082820;28;20531;-74
2023/07/24 11:28:14;;;;;;;7.27;2.63;;;;;;;;;;5071503;28;20036;-76
2023/07/24 11:30:40;;;;;;;8.55;3.03;;;;;;;;;;5070038;28;20037;-76
2023/07/24 11:33:07;;;;;;;16.60;3.60;;;;;;;;;;5054898;28;20037;-75
2023/07/24 11:35:33;;;;;;;12.05;2.20;;;;;;;;;;5062529;28;20036;-77
2023/07/24 11:37:58;;;;;;;9.20;2.60;;;;;;;;;;5071021;28;20036;-76
2023/07/24 11:40:33;;;;;;;12.40;2.28;;;;;;;;;;5070401;28;20515;-78
2023/07/24 11:42:58;;;;;;;6.63;1.98;;;;;;;;;;5070810;28;20490;-75
2023/07/24 11:45:23;;;;;;;11.13;3.58;;;;;;;;;;5070548;28;20063;-77
2023/07/24 11:47:50;;;;;;;8.25;3.10;;;;;;;;;;5070867;28;20395;-76
2023/07/24 11:50:16;;;;;;;11.80;3.17;;;;;;;;;;5072024;28;20388;-75
2023/07/24 11:52:43;;;;;;;17.50;4.00;;;;;;;;;;5068252;28;20475;-75
2023/07/24 11:55:09;;;;;;;8.25;2.60;;;;;;;;;;5069114;28;20033;-75
2023/07/24 11:57:34;;;;;;;11.32;4.65;;;;;;;;;;5073875;28;20468;-75
2023/07/24 12:00:00;;;;;;;10.93;3.95;;;;;;;;;;5070451;28;20431;-79
2023/07/24 12:02:27;;;;;;;18.77;4.95;;;;;;;;;;5070562;28;20036;-75
2023/07/24 12:04:57;;;;;;;9.38;2.97;;;;;;;;;;5052455;28;20399;-75
2023/07/24 12:07:28;;;;;;;12.68;2.92;;;;;;;;;;5070233;28;20390;-75
2023/07/24 12:09:53;;;;;;;12.38;3.58;;;;;;;;;;5070186;28;20111;-75
2023/07/24 12:12:19;;;;;;;5.85;2.17;;;;;;;;;;5052085;28;20044;-77
2023/07/24 12:14:44;;;;;;;12.25;4.05;;;;;;;;;;5055566;28;20032;-80
2023/07/24 12:17:14;;;;;;;8.73;3.38;;;;;;;;;;5075225;28;20064;-76
2023/07/24 12:19:39;;;;;;;18.00;6.15;;;;;;;;;;5082358;28;20040;-77
2023/07/24 12:22:05;;;;;;;12.75;3.03;;;;;;;;;;5081060;28;20097;-76
2023/07/24 12:24:30;;;;;;;8.48;2.90;;;;;;;;;;5072856;28;20029;-76
2023/07/24 12:26:55;;;;;;;12.40;3.28;;;;;;;;;;5069634;28;20035;-77
2023/07/24 12:29:21;;;;;;;7.40;3.22;;;;;;;;;;5060995;28;20106;-76
2023/07/24 12:31:46;;;;;;;17.70;3.42;;;;;;;;;;5062590;28;20044;-77
2023/07/24 12:34:12;;;;;;;9.25;3.00;;;;;;;;;;5074969;28;20040;-74
2023/07/24 12:36:37;;;;;;;4.63;1.50;;;;;;;;;;5067493;28;20094;-75
2023/07/24 12:39:03;;;;;;;10.93;3.38;;;;;;;;;;5051024;28;20032;-75
2023/07/24 12:41:28;;;;;;;9.25;2.10;;;;;;;;;;5058637;28;20062;-75
2023/07/24 12:43:53;;;;;;;8.32;2.45;;;;;;;;;;5068029;28;20539;-74
2023/07/24 12:46:19;;;;;;;10.40;3.60;;;;;;;;;;5064783;28;20182;-73
2023/07/24 12:48:44;;;;;;;4.68;2.50;;;;;;;;;;5088128;28;20486;-74
2023/07/24 12:51:10;;;;;;;7.45;1.88;;;;;;;;;;5081685;28;20284;-74
2023/07/24 12:53:36;;;;;;;16.52;3.33;;;;;;;;;;5084707;28;20036;-74
2023/07/24 12:56:01;;;;;;;14.00;3.58;;;;;;;;;;5077295;28;20366;-74
2023/07/24 12:58:26;;;;;;;8.40;2.60;;;;;;;;;;5067707;28;20024;-74
2023/07/24 13:00:52;;;;;;;17.67;4.60;;;;;;;;;;5067373;28;20135;-74
2023/07/24 13:03:17;;;;;;;7.50;2.22;;;;;;;;;;5081497;28;20038;-74
2023/07/24 13:05:43;;;;;;;12.55;3.17;;;;;;;;;;5088034;28;20479;-74
2023/07/24 13:08:08;;;;;;;5.22;2.50;;;;;;;;;;5087524;28;20088;-74
2023/07/24 13:10:33;;;;;;;6.40;1.63;;;;;;;;;;5084025;28;20071;-73
2023/07/24 13:13:00;;;;;;;3.58;2.05;;;;;;;;;;5088047;28;20077;-75
2023/07/24 13:15:26;;;;;;;10.43;2.72;;;;;;;;;;5081936;28;20071;-74
2023/07/24 13:17:51;;;;;;;8.10;2.22;;;;;;;;;;5050570;28;20049;-75
2023/07/24 13:20:17;;;;;;;3.95;1.23;;;;;;;;;;5047707;28;20480;-75
2023/07/24 13:22:46;;;;;;;3.92;2.25;;;;;;;;;;5047432;28;20124;-74
2023/07/24 13:25:11;;;;;;;4.90;2.95;;;;;;;;;;5047602;28;20083;-74
2023/07/24 13:27:37;;;;;;;6.00;3.13;;;;;;;;;;5047736;28;20372;-74
2023/07/24 13:30:02;;;;;;;4.88;1.67;;;;;;;;;;5049838;28;20044;-74
2023/07/24 13:32:29;;;;;;;9.90;3.15;;;;;;;;;;5056142;28;20024;-74
2023/07/24 13:34:55;;;;;;;8.20;2.85;;;;;;;;;;5066519;28;20036;-73
2023/07/24 13:37:21;;;;;;;19.63;4.22;;;;;;;;;;5066731;28;20036;-74
2023/07/24 13:39:46;;;;;;;15.90;3.30;;;;;;;;;;5066599;28;20035;-75
2023/07/24 13:42:12;;;;;;;14.95;3.92;;;;;;;;;;5067716;28;20123;-74
2023/07/24 13:44:37;;;;;;;17.65;2.95;;;;;;;;;;5031058;28;20060;-74
2023/07/24 13:47:03;;;;;;;14.50;3.95;;;;;;;;;;5047550;28;20044;-73
2023/07/24 13:49:28;;;;;;;8.30;2.80;;;;;;;;;;5029576;28;20029;-73
2023/07/24 13:51:53;;;;;;;12.82;3.50;;;;;;;;;;5045956;28;20033;-74
2023/07/24 13:54:19;;;;;;;17.05;4.00;;;;;;;;;;5045118;28;20044;-74
2023/07/24 13:56:44;;;;;;;3.33;1.33;;;;;;;;;;5045609;28;20450;-74
2023/07/24 13:59:10;;;;;;;10.35;3.20;;;;;;;;;;5044754;28;20029;-73
2023/07/24 14:01:35;;;;;;;16.77;4.10;;;;;;;;;;5047049;28;20538;-73
2023/07/24 14:04:01;;;;;;;16.98;2.90;;;;;;;;;;5029627;28;20029;-74
2023/07/24 14:06:26;;;;;;;14.60;3.58;;;;;;;;;;5048543;28;20499;-72
2023/07/24 14:08:52;;;;;;;16.27;3.83;;;;;;;;;;5047127;28;20491;-72
2023/07/24 14:11:17;;;;;;;11.10;3.55;;;;;;;;;;5046684;28;20291;-73
2023/07/24 14:13:44;;;;;;;13.95;3.50;;;;;;;;;;5046475;28;20134;-73
2023/07/24 14:16:10;;;;;;;13.45;3.72;;;;;;;;;;5046675;28;20052;-74
2023/07/24 14:18:36;;;;;;;15.25;3.65;;;;;;;;;;5046769;28;20091;-74
2023/07/24 14:21:01;;;;;;;7.50;2.13;;;;;;;;;;5046279;28;20052;-72
2023/07/24 14:23:27;;;;;;;3.85;1.38;;;;;;;;;;5046959;28;20116;-73
2023/07/24 14:25:52;;;;;;;4.63;1.67;;;;;;;;;;5048423;28;20405;-72
2023/07/24 14:28:17;;;;;;;8.25;3.15;;;;;;;;;;5048874;28;20033;-73
2023/07/24 14:30:43;;;;;;;12.38;4.28;;;;;;;;;;5048446;28;20033;-72
2023/07/24 14:33:08;;;;;;;15.60;4.20;;;;;;;;;;5048225;28;20112;-73
2023/07/24 14:35:33;;;;;;;6.25;3.03;;;;;;;;;;5048879;28;20040;-73
2023/07/24 14:37:59;;;;;;;13.55;4.93;;;;;;;;;;5058409;28;20031;-73
2023/07/24 14:40:24;;;;;;;9.05;2.60;;;;;;;;;;5038357;28;20037;-73
2023/07/24 14:42:50;;;;;;;6.90;2.53;;;;;;;;;;5045034;28;20033;-75
2023/07/24 14:45:15;;;;;;;7.93;2.05;;;;;;;;;;5044622;28;20069;-74
2023/07/24 14:47:41;;;;;;;12.30;3.47;;;;;;;;;;5046411;28;20029;-73
2023/07/24 14:50:06;;;;;;;6.95;4.88;;;;;;;;;;5063700;28;20025;-74